createdAt,value
2023-03-26T00:00:18.830Z,100882.50
2023-03-26T00:02:48.412Z,100871.44
2023-03-26T00:05:18.123Z,100869.69
2023-03-26T00:07:47.742Z,100867.06
2023-03-26T00:10:17.535Z,100878.81
2023-03-26T00:12:47.270Z,100881.72
2023-03-26T00:15:17.018Z,100876.72
2023-03-26T00:17:47.922Z,100870.63
2023-03-26T00:20:17.681Z,100888.00
2023-03-26T00:22:47.325Z,100879.56
2023-03-26T00:25:17.487Z,100885.34
2023-03-26T00:27:47.148Z,100877.13
2023-03-26T00:30:17.166Z,100885.81
2023-03-26T00:32:53.333Z,100884.56
2023-03-26T00:35:23.893Z,100878.31
2023-03-26T00:37:54.983Z,100871.22
2023-03-26T00:40:25.016Z,100884.56
2023-03-26T00:42:54.604Z,100880.31
2023-03-26T00:45:24.684Z,100866.38
2023-03-26T00:47:54.536Z,100866.78
2023-03-26T00:50:24.170Z,100871.88
2023-03-26T00:52:57.302Z,100869.38
2023-03-26T00:55:26.881Z,100871.25
2023-03-26T00:57:57.054Z,100870.59
2023-03-26T01:00:38.045Z,100863.25
2023-03-26T01:03:08.884Z,100878.41
2023-03-26T01:05:46.358Z,100875.19
2023-03-26T01:08:27.153Z,100877.72
2023-03-26T01:11:04.922Z,100873.69
2023-03-26T01:13:40.111Z,100892.69
2023-03-26T01:16:21.619Z,100875.47
2023-03-26T01:18:51.568Z,100887.75
2023-03-26T01:21:25.122Z,100881.00
2023-03-26T01:24:03.431Z,100893.22
2023-03-26T01:26:54.266Z,100880.22
2023-03-26T01:29:39.112Z,100866.09
2023-03-26T01:32:46.913Z,100852.34
2023-03-26T01:35:28.687Z,100853.31
2023-03-26T01:38:12.043Z,100859.34
2023-03-26T01:41:11.163Z,100844.38
2023-03-26T01:44:02.864Z,100854.47
2023-03-26T01:46:37.771Z,100842.41
2023-03-26T01:49:14.601Z,100838.03
2023-03-26T01:51:45.052Z,100839.91
2023-03-26T01:54:24.076Z,100836.78
2023-03-26T01:57:12.790Z,100829.00
2023-03-26T01:59:57.294Z,100827.25
2023-03-26T02:02:41.751Z,100831.41
2023-03-26T02:05:39.368Z,100849.94
2023-03-26T02:08:36.790Z,100825.97
2023-03-26T02:11:14.730Z,100822.03
2023-03-26T02:13:48.029Z,100814.09
2023-03-26T02:16:19.113Z,100818.50
2023-03-26T02:18:52.932Z,100802.47
2023-03-26T02:21:24.899Z,100804.06
2023-03-26T02:24:04.434Z,100800.59
2023-03-26T02:26:36.834Z,100812.53
2023-03-26T02:29:06.478Z,100810.22
2023-03-26T02:31:37.319Z,100802.31
2023-03-26T02:34:07.032Z,100803.66
2023-03-26T02:36:37.316Z,100805.41
2023-03-26T02:39:07.347Z,100801.97
2023-03-26T02:41:37.050Z,100783.69
2023-03-26T02:44:09.537Z,100794.94
2023-03-26T02:46:39.142Z,100797.31
2023-03-26T02:49:09.734Z,100815.69
2023-03-26T02:51:39.320Z,100777.56
2023-03-26T02:54:08.897Z,100789.31
2023-03-26T02:56:38.732Z,100776.38
2023-03-26T02:59:08.319Z,100789.78
2023-03-26T03:01:37.975Z,100776.81
2023-03-26T03:04:09.811Z,100776.69
2023-03-26T03:06:42.542Z,100773.69
2023-03-26T03:09:12.165Z,100777.44
2023-03-26T03:11:43.184Z,100773.69
2023-03-26T03:14:12.839Z,100753.06
2023-03-26T03:16:42.659Z,100762.06
2023-03-26T03:19:12.714Z,100781.31
2023-03-26T03:21:43.230Z,100766.38
2023-03-26T03:24:15.310Z,100767.88
2023-03-26T03:26:47.331Z,100761.75
2023-03-26T03:29:16.920Z,100766.75
2023-03-26T03:31:46.493Z,100755.88
2023-03-26T03:34:16.061Z,100753.88
2023-03-26T03:36:49.864Z,100756.88
2023-03-26T03:39:19.506Z,100766.88
2023-03-26T03:41:49.107Z,100764.06
2023-03-26T03:44:18.771Z,100759.94
2023-03-26T03:46:50.629Z,100758.81
2023-03-26T03:49:20.253Z,100756.41
2023-03-26T03:51:49.915Z,100749.56
2023-03-26T03:54:19.512Z,100750.91
2023-03-26T03:56:50.555Z,100739.28
2023-03-26T03:59:20.153Z,100733.66
2023-03-26T04:01:49.990Z,100739.56
2023-03-26T04:04:20.283Z,100738.53
2023-03-26T04:06:50.093Z,100736.28
2023-03-26T04:09:19.696Z,100731.59
2023-03-26T04:11:49.260Z,100732.19
2023-03-26T04:14:18.881Z,100726.53
2023-03-26T04:16:50.515Z,100681.56
2023-03-26T04:19:20.120Z,100721.22
2023-03-26T04:21:50.998Z,100714.81
2023-03-26T04:24:21.205Z,100706.88
2023-03-26T04:26:52.476Z,100708.25
2023-03-26T04:29:25.967Z,100710.91
2023-03-26T04:32:07.852Z,100711.53
2023-03-26T04:34:37.877Z,100723.00
2023-03-26T04:37:07.530Z,100713.38
2023-03-26T04:39:37.763Z,100717.84
2023-03-26T04:42:07.343Z,100708.66
2023-03-26T04:44:36.893Z,100707.19
2023-03-26T04:47:06.517Z,100713.25
2023-03-26T04:49:36.065Z,100717.03
2023-03-26T04:52:05.784Z,100710.91
2023-03-26T04:54:35.329Z,100718.94
2023-03-26T04:57:15.398Z,100708.59
2023-03-26T04:59:45.074Z,100716.88
2023-03-26T05:02:15.632Z,100717.22
2023-03-26T05:04:47.304Z,100713.97
2023-03-26T05:07:21.746Z,100715.94
2023-03-26T05:09:51.395Z,100716.28
2023-03-26T05:12:20.957Z,100711.38
2023-03-26T05:14:50.630Z,100712.00
2023-03-26T05:17:22.933Z,100707.59
2023-03-26T05:19:53.591Z,100710.78
2023-03-26T05:22:23.160Z,100709.56
2023-03-26T05:24:53.004Z,100713.16
2023-03-26T05:27:22.670Z,100704.06
2023-03-26T05:29:52.406Z,100695.00
2023-03-26T05:32:22.050Z,100705.09
2023-03-26T05:34:52.573Z,100708.25
2023-03-26T05:37:26.046Z,100700.50
2023-03-26T05:39:59.228Z,100708.69
2023-03-26T05:42:29.012Z,100678.66
2023-03-26T05:44:58.564Z,100684.59
2023-03-26T05:47:29.343Z,100693.19
2023-03-26T05:49:58.981Z,100676.03
2023-03-26T05:52:29.144Z,100658.72
2023-03-26T05:54:58.800Z,100671.34
2023-03-26T05:57:30.680Z,100659.41
2023-03-26T06:00:00.276Z,100666.34
2023-03-26T06:02:30.994Z,100663.59
2023-03-26T06:05:00.623Z,100661.41
2023-03-26T06:07:30.296Z,100666.97
2023-03-26T06:10:00.096Z,100651.34
2023-03-26T06:12:29.783Z,100661.00
2023-03-26T06:14:59.356Z,100659.00
2023-03-26T06:17:29.161Z,100664.97
2023-03-26T06:19:58.791Z,100664.97
2023-03-26T06:22:28.393Z,100662.03
2023-03-26T06:24:57.993Z,100652.75
2023-03-26T06:27:27.647Z,100645.31
2023-03-26T06:29:57.310Z,100647.53
2023-03-26T06:32:27.008Z,100652.78
2023-03-26T06:34:56.663Z,100647.63
2023-03-26T06:37:26.305Z,100659.13
2023-03-26T06:39:55.906Z,100655.25
2023-03-26T06:43:06.394Z,100650.56
2023-03-26T06:45:15.280Z,100653.66
2023-03-26T06:47:44.982Z,100643.06
2023-03-26T06:50:14.692Z,100648.06
2023-03-26T06:52:44.337Z,100638.25
2023-03-26T06:55:14.196Z,100646.97
2023-03-26T06:57:46.762Z,100650.03
2023-03-26T07:00:16.967Z,100641.50
2023-03-26T07:02:46.671Z,100646.34
2023-03-26T07:05:17.183Z,100628.13
2023-03-26T07:07:47.449Z,100633.13
2023-03-26T07:10:17.530Z,100631.22
2023-03-26T07:12:47.483Z,100641.91
2023-03-26T07:15:17.261Z,100649.19
2023-03-26T07:17:46.910Z,100635.91
2023-03-26T07:20:16.492Z,100640.91
2023-03-26T07:22:46.332Z,100632.34
2023-03-26T07:25:17.139Z,100643.63
2023-03-26T07:27:52.567Z,100639.75
2023-03-26T07:30:33.415Z,100639.22
2023-03-26T07:33:07.673Z,100633.25
2023-03-26T07:36:15.378Z,100637.66
2023-03-26T07:38:53.972Z,100643.75
2023-03-26T07:41:37.787Z,100651.66
2023-03-26T07:44:29.118Z,100658.91
2023-03-26T07:47:02.114Z,100655.59
2023-03-26T07:49:32.956Z,100657.91
2023-03-26T07:52:03.004Z,100656.34
2023-03-26T07:54:32.795Z,100645.69
2023-03-26T07:57:18.565Z,100650.31
2023-03-26T08:00:03.340Z,100651.00
2023-03-26T08:02:59.229Z,100651.34
2023-03-26T08:05:35.627Z,100658.50
2023-03-26T08:08:07.145Z,100660.06
2023-03-26T08:10:45.879Z,100660.06
2023-03-26T08:14:00.686Z,100657.84
2023-03-26T08:16:32.194Z,100657.78
2023-03-26T08:19:09.468Z,100657.03
2023-03-26T08:21:44.671Z,100661.88
2023-03-26T08:24:23.671Z,100651.00
2023-03-26T08:27:06.875Z,100667.19
2023-03-26T08:30:05.547Z,100660.97
2023-03-26T08:32:35.428Z,100660.31
2023-03-26T08:35:05.915Z,100661.34
2023-03-26T08:37:35.541Z,100660.06
2023-03-26T08:40:05.201Z,100666.28
2023-03-26T08:42:58.747Z,100656.03
2023-03-26T08:45:44.378Z,100662.47
2023-03-26T08:48:37.043Z,100663.13
2023-03-26T08:51:34.006Z,100657.84
2023-03-26T08:54:19.607Z,100662.59
2023-03-26T08:57:18.310Z,100668.91
2023-03-26T09:00:14.516Z,100670.25
2023-03-26T09:02:50.084Z,100670.31
2023-03-26T09:05:37.727Z,100676.69
2023-03-26T09:08:07.426Z,100671.88
2023-03-26T09:10:40.027Z,100678.19
2023-03-26T09:13:45.597Z,100676.88
2023-03-26T09:16:39.446Z,100679.69
2023-03-26T09:19:18.044Z,100683.19
2023-03-26T09:22:12.056Z,100683.59
2023-03-26T09:24:59.852Z,100692.50
2023-03-26T09:28:22.201Z,100691.94
2023-03-26T09:31:07.075Z,100685.44
2023-03-26T09:33:45.714Z,100688.97
2023-03-26T09:36:22.031Z,100690.34
2023-03-26T09:39:12.477Z,100695.59
2023-03-26T09:42:09.276Z,100714.09
2023-03-26T09:45:10.544Z,100703.13
2023-03-26T09:48:12.619Z,100724.84
2023-03-26T09:51:07.653Z,100727.31
2023-03-26T09:53:46.870Z,100725.69
2023-03-26T09:56:28.294Z,100732.06
2023-03-26T09:59:15.695Z,100725.16
2023-03-26T10:02:18.790Z,100737.28
2023-03-26T10:05:06.554Z,100742.75
2023-03-26T10:08:08.717Z,100750.22
2023-03-26T10:11:05.149Z,100756.00
2023-03-26T10:14:01.051Z,100764.75
2023-03-26T10:16:48.930Z,100760.13
2023-03-26T10:19:44.716Z,100766.94
2023-03-26T10:22:44.263Z,100771.63
2023-03-26T10:25:32.492Z,100782.59
2023-03-26T10:28:29.419Z,100783.69
2023-03-26T10:31:07.482Z,100792.75
2023-03-26T10:33:53.744Z,100783.72
2023-03-26T10:36:31.162Z,100798.53
2023-03-26T10:39:08.594Z,100805.94
2023-03-26T10:41:55.637Z,100805.63
2023-03-26T10:44:27.985Z,100813.03
2023-03-26T10:47:10.054Z,100814.66
2023-03-26T10:50:23.039Z,100811.88
2023-03-26T10:53:13.943Z,100830.00
2023-03-26T10:55:48.927Z,100821.16
2023-03-26T10:58:48.398Z,100834.28
2023-03-26T11:01:57.746Z,100831.59
2023-03-26T11:04:39.567Z,100840.91
2023-03-26T11:07:21.130Z,100851.88
2023-03-26T11:10:11.253Z,100862.28
2023-03-26T11:12:53.551Z,100864.72
2023-03-26T11:15:54.828Z,100871.84
2023-03-26T11:18:45.888Z,100871.00
2023-03-26T11:21:32.833Z,100877.50
2023-03-26T11:24:32.771Z,100882.75
2023-03-26T11:27:20.879Z,100886.81
2023-03-26T11:30:22.327Z,100891.16
2023-03-26T11:32:56.464Z,100902.28
2023-03-26T11:35:39.503Z,100908.91
2023-03-26T11:38:13.581Z,100917.75
2023-03-26T11:40:44.620Z,100916.41
2023-03-26T11:43:16.373Z,100923.94
2023-03-26T11:45:50.079Z,100940.06
2023-03-26T11:48:33.442Z,100944.59
2023-03-26T11:51:13.208Z,100943.41
2023-03-26T11:53:48.610Z,100949.59
2023-03-26T11:57:05.121Z,100965.09
2023-03-26T12:00:17.343Z,100970.09
2023-03-26T12:02:49.213Z,100980.28
2023-03-26T12:05:26.485Z,100985.25
2023-03-26T12:07:58.931Z,100986.84
2023-03-26T12:10:41.548Z,100981.81
2023-03-26T12:13:53.511Z,100988.31
2023-03-26T12:16:24.391Z,100972.50
2023-03-26T12:19:20.490Z,100990.72
2023-03-26T12:21:56.029Z,100999.44
2023-03-26T12:24:38.747Z,101003.78
2023-03-26T12:27:23.318Z,101002.44
2023-03-26T12:30:11.037Z,101009.00
2023-03-26T12:32:47.048Z,101004.66
2023-03-26T12:35:20.324Z,101009.31
2023-03-26T12:37:50.331Z,101012.03
2023-03-26T12:40:38.349Z,101014.72
2023-03-26T12:44:53.052Z,101017.31
2023-03-26T12:47:54.378Z,101017.09
2023-03-26T12:49:28.148Z,101018.28
2023-03-26T12:52:29.378Z,101014.94
2023-03-26T12:55:15.439Z,101026.38
2023-03-26T12:58:13.777Z,101027.31
2023-03-26T13:00:53.019Z,101028.38
2023-03-26T13:04:05.257Z,101029.34
2023-03-26T13:07:12.684Z,101028.38
2023-03-26T13:10:04.675Z,101034.75
2023-03-26T13:13:04.447Z,101035.75
2023-03-26T13:15:46.779Z,101043.50
2023-03-26T13:18:33.053Z,101037.91
2023-03-26T13:21:33.694Z,101051.84
2023-03-26T13:24:09.343Z,101050.19
2023-03-26T13:27:02.988Z,101061.13
2023-03-26T13:29:58.038Z,101064.00
2023-03-26T13:32:45.843Z,101058.13
2023-03-26T13:35:38.048Z,101061.94
2023-03-26T13:38:41.484Z,101065.22
2023-03-26T13:41:28.879Z,101067.03
2023-03-26T13:44:18.427Z,101081.03
2023-03-26T13:46:57.254Z,101078.59
2023-03-26T13:49:38.651Z,101075.22
2023-03-26T13:52:36.831Z,101078.19
2023-03-26T13:55:21.039Z,101078.69
2023-03-26T13:58:13.554Z,101089.94
2023-03-26T14:01:09.222Z,101089.63
2023-03-26T14:03:57.966Z,101090.84
2023-03-26T14:06:55.555Z,101093.59
2023-03-26T14:09:38.770Z,101098.13
2023-03-26T14:12:21.101Z,101114.81
2023-03-26T14:15:02.804Z,101109.06
2023-03-26T14:18:22.052Z,101102.72
2023-03-26T14:21:04.225Z,101109.06
2023-03-26T14:23:51.961Z,101111.56
2023-03-26T14:26:28.026Z,101113.72
2023-03-26T14:29:25.194Z,101118.47
2023-03-26T14:32:12.805Z,101118.72
2023-03-26T14:35:03.639Z,101118.91
2023-03-26T14:38:00.271Z,101119.06
2023-03-26T14:40:51.501Z,101115.47
2023-03-26T14:43:27.112Z,101111.75
2023-03-26T14:46:09.010Z,101108.66
2023-03-26T14:48:59.621Z,101111.84
2023-03-26T14:51:57.726Z,101108.78
2023-03-26T14:54:30.674Z,101108.22
2023-03-26T14:57:36.739Z,101104.44
2023-03-26T15:00:17.145Z,101103.97
2023-03-26T15:03:23.165Z,101098.66
2023-03-26T15:05:58.667Z,101097.22
2023-03-26T15:09:17.260Z,101096.38
2023-03-26T15:12:15.636Z,101103.16
2023-03-26T15:15:00.439Z,101102.56
2023-03-26T15:17:32.672Z,101076.16
2023-03-26T15:20:14.611Z,101119.84
2023-03-26T15:23:20.497Z,101124.59
2023-03-26T15:26:43.848Z,101128.66
2023-03-26T15:29:25.469Z,101137.75
2023-03-26T15:32:10.368Z,101132.16
2023-03-26T15:34:52.195Z,101136.31
2023-03-26T15:37:54.202Z,101128.25
2023-03-26T15:41:19.100Z,101134.72
2023-03-26T15:44:23.993Z,101129.50
2023-03-26T15:47:01.529Z,101129.91
2023-03-26T15:50:03.482Z,101134.16
2023-03-26T15:52:45.000Z,101137.31
2023-03-26T15:55:20.609Z,101126.66
2023-03-26T15:58:32.275Z,101138.88
2023-03-26T16:01:07.792Z,101139.47
2023-03-26T16:03:54.794Z,101138.75
2023-03-26T16:06:32.492Z,101157.78
2023-03-26T16:09:17.913Z,101150.25
2023-03-26T16:11:58.693Z,101152.59
2023-03-26T16:14:37.548Z,101156.97
2023-03-26T16:17:14.507Z,101155.88
2023-03-26T16:20:33.007Z,101172.72
2023-03-26T16:23:06.144Z,101173.41
2023-03-26T16:25:54.770Z,101185.53
2023-03-26T16:28:30.079Z,101194.44
2023-03-26T16:31:10.666Z,101195.03
2023-03-26T16:34:21.254Z,101192.72
2023-03-26T16:36:55.561Z,101191.66
2023-03-26T16:39:45.812Z,101190.03
2023-03-26T16:42:19.465Z,101182.75
2023-03-26T16:44:48.397Z,101196.97
2023-03-26T16:47:45.039Z,101191.25
2023-03-26T16:50:42.112Z,101182.09
2023-03-26T16:53:25.736Z,101190.44
2023-03-26T16:56:14.517Z,101172.66
2023-03-26T16:58:53.025Z,101172.66
2023-03-26T17:01:22.801Z,101168.22
2023-03-26T17:03:52.444Z,101172.13
2023-03-26T17:06:49.312Z,101174.47
2023-03-26T17:09:37.610Z,101182.75
2023-03-26T17:12:34.633Z,101180.41
2023-03-26T17:15:23.105Z,101178.88
2023-03-26T17:18:22.889Z,101179.91
2023-03-26T17:21:04.946Z,101179.44
2023-03-26T17:24:06.764Z,101178.78
2023-03-26T17:27:06.352Z,101173.53
2023-03-26T17:30:05.278Z,101178.72
2023-03-26T17:33:02.110Z,101177.28
2023-03-26T17:35:47.645Z,101175.44
2023-03-26T17:38:20.083Z,101165.16
2023-03-26T17:41:00.164Z,101158.09
2023-03-26T17:43:48.644Z,101164.88
2023-03-26T17:46:39.167Z,101159.75
2023-03-26T17:49:14.361Z,101159.22
2023-03-26T17:52:01.460Z,101155.69
2023-03-26T17:54:37.183Z,101153.72
2023-03-26T17:57:16.523Z,101158.22
2023-03-26T17:59:48.443Z,101148.69
2023-03-26T18:02:23.595Z,101146.16
2023-03-26T18:04:57.660Z,101143.22
2023-03-26T18:08:12.184Z,101141.69
2023-03-26T18:10:59.893Z,101139.34
2023-03-26T18:14:07.824Z,101126.19
2023-03-26T18:16:50.886Z,101131.81
2023-03-26T18:19:24.803Z,101130.75
2023-03-26T18:21:58.306Z,101128.50
2023-03-26T18:24:38.509Z,101129.63
2023-03-26T18:27:12.888Z,101116.56
2023-03-26T18:30:01.853Z,101117.59
2023-03-26T18:32:34.901Z,101113.97
2023-03-26T18:35:18.560Z,101118.38
2023-03-26T18:37:50.695Z,101109.28
2023-03-26T18:40:25.499Z,101114.53
2023-03-26T18:42:58.842Z,101111.50
2023-03-26T18:45:39.939Z,101107.19
2023-03-26T18:48:29.793Z,101101.44
2023-03-26T18:51:04.862Z,101097.22
2023-03-26T18:53:49.345Z,101106.22
2023-03-26T18:56:43.176Z,101099.97
2023-03-26T18:59:36.706Z,101101.16
2023-03-26T19:02:15.878Z,101104.00
2023-03-26T19:04:47.337Z,101107.38
2023-03-26T19:07:20.637Z,101112.88
2023-03-26T19:09:51.616Z,101101.63
2023-03-26T19:12:24.705Z,101110.38
2023-03-26T19:15:05.616Z,101111.97
2023-03-26T19:17:41.308Z,101115.75
2023-03-26T19:20:24.209Z,101119.56
2023-03-26T19:22:54.726Z,101128.81
2023-03-26T19:25:48.982Z,101130.88
2023-03-26T19:28:31.653Z,101130.34
2023-03-26T19:31:09.692Z,101128.81
2023-03-26T19:33:43.320Z,101135.41
2023-03-26T19:36:15.130Z,101134.22
2023-03-26T19:38:57.254Z,101131.13
2023-03-26T19:41:35.775Z,101128.66
2023-03-26T19:44:18.682Z,101130.09
2023-03-26T19:46:52.992Z,101132.56
2023-03-26T19:49:35.457Z,101135.38
2023-03-26T19:52:26.895Z,101130.16
2023-03-26T19:55:28.721Z,101131.75
2023-03-26T19:57:58.258Z,101130.22
2023-03-26T20:00:27.842Z,101133.41
2023-03-26T20:02:57.799Z,101135.38
2023-03-26T20:05:30.380Z,101119.97
2023-03-26T20:08:02.127Z,101134.94
2023-03-26T20:10:31.715Z,101135.13
2023-03-26T20:13:02.103Z,101137.16
2023-03-26T20:15:35.722Z,101141.97
2023-03-26T20:18:05.100Z,101145.06
2023-03-26T20:20:35.822Z,101139.88
2023-03-26T20:23:05.450Z,101140.19
2023-03-26T20:25:37.027Z,101147.47
2023-03-26T20:28:07.379Z,101137.81
2023-03-26T20:30:38.266Z,101153.44
2023-03-26T20:33:12.671Z,101144.50
2023-03-26T20:35:44.234Z,101142.63
2023-03-26T20:38:13.909Z,101142.63
2023-03-26T20:40:43.974Z,101149.13
2023-03-26T20:43:15.830Z,101151.34
2023-03-26T20:45:45.422Z,101148.50
2023-03-26T20:48:15.185Z,101149.78
2023-03-26T20:50:50.671Z,101157.09
2023-03-26T20:53:21.824Z,101146.44
2023-03-26T20:55:52.254Z,101147.13
2023-03-26T20:58:31.190Z,101156.47
2023-03-26T21:01:04.983Z,101165.75
2023-03-26T21:03:35.141Z,101159.84
2023-03-26T21:06:06.964Z,101164.28
2023-03-26T21:08:37.024Z,101158.81
2023-03-26T21:11:26.484Z,101170.63
2023-03-26T21:14:24.908Z,101168.97
2023-03-26T21:16:54.861Z,101183.59
2023-03-26T21:19:24.838Z,101171.28
2023-03-26T21:22:09.816Z,101168.00
2023-03-26T21:24:47.186Z,101176.84
2023-03-26T21:27:30.612Z,101168.09
2023-03-26T21:30:01.493Z,101187.81
2023-03-26T21:32:33.145Z,101183.72
2023-03-26T21:35:04.999Z,101189.75
2023-03-26T21:37:34.867Z,101185.94
2023-03-26T21:40:14.496Z,101194.72
2023-03-26T21:42:48.559Z,101176.56
2023-03-26T21:45:19.697Z,101190.44
2023-03-26T21:47:49.582Z,101192.75
2023-03-26T21:50:24.918Z,101196.00
2023-03-26T21:52:54.940Z,101192.47
2023-03-26T21:55:26.345Z,101200.97
2023-03-26T21:58:17.277Z,101215.34
2023-03-26T22:01:01.503Z,101220.44
2023-03-26T22:03:45.145Z,101220.00
2023-03-26T22:06:44.501Z,101213.84
2023-03-26T22:09:18.364Z,101226.00
2023-03-26T22:11:48.291Z,101222.91
2023-03-26T22:14:17.850Z,101233.59
2023-03-26T22:16:47.529Z,101227.94
2023-03-26T22:19:17.278Z,101242.81
2023-03-26T22:21:46.994Z,101252.78
2023-03-26T22:24:16.617Z,101264.81
2023-03-26T22:26:46.286Z,101261.72
2023-03-26T22:29:16.446Z,101272.03
2023-03-26T22:31:46.674Z,101256.41
2023-03-26T22:34:16.521Z,101274.97
2023-03-26T22:36:46.394Z,101279.13
2023-03-26T22:39:15.989Z,101276.09
2023-03-26T22:41:45.657Z,101270.78
2023-03-26T22:46:50.425Z,101283.03
2023-03-26T22:49:20.395Z,101279.78
2023-03-26T22:51:51.611Z,101288.28
2023-03-26T22:54:21.367Z,101285.53
2023-03-26T22:56:51.076Z,101295.88
2023-03-26T22:59:20.735Z,101303.53
2023-03-26T23:01:50.836Z,101297.69
2023-03-26T23:04:31.710Z,101280.34
2023-03-26T23:07:02.253Z,101305.63
2023-03-26T23:09:31.855Z,101306.13
2023-03-26T23:12:01.575Z,101309.00
2023-03-26T23:14:33.855Z,101308.22
2023-03-26T23:17:03.541Z,101305.66
2023-03-26T23:19:35.516Z,101306.16
2023-03-26T23:22:05.168Z,101305.06
2023-03-26T23:24:34.726Z,101314.06
2023-03-26T23:27:05.049Z,101313.41
2023-03-26T23:29:35.080Z,101310.72
2023-03-26T23:32:23.420Z,101316.97
2023-03-26T23:34:54.374Z,101325.34
2023-03-26T23:37:24.950Z,101326.00
2023-03-26T23:39:55.178Z,101323.44
2023-03-26T23:42:28.825Z,101335.28
2023-03-26T23:44:59.730Z,101337.16
2023-03-26T23:47:35.708Z,101341.56
2023-03-26T23:50:07.002Z,101344.97
2023-03-26T23:52:38.905Z,101343.03
2023-03-26T23:55:09.541Z,101342.81
2023-03-26T23:57:39.307Z,101350.03
